sensor_id;sensor_type;location;lat;lon;timestamp;pressure;altitude;pressure_sealevel;temperature;humidity
72423;BME280;60413;55.658;37.498;2023-01-05T00:01:39;98055.03;;;-3.33;100.00
72423;BME280;60413;55.658;37.498;2023-01-05T00:04:06;98099.31;;;-3.14;100.00
72423;BME280;60413;55.658;37.498;2023-01-05T00:06:32;98036.63;;;-3.45;100.00
72423;BME280;60413;55.658;37.498;2023-01-05T00:08:59;98070.09;;;-3.22;100.00
72423;BME280;60413;55.658;37.498;2023-01-05T00:11:25;98075.53;;;-3.02;100.00
72423;BME280;60413;55.658;37.498;2023-01-05T00:14:14;98074.16;;;-3.12;100.00
72423;BME280;60413;55.658;37.498;2023-01-05T00:16:59;98079.88;;;-3.17;100.00
72423;BME280;60413;55.658;37.498;2023-01-05T00:19:44;98067.78;;;-3.17;100.00
72423;BME280;60413;55.658;37.498;2023-01-05T00:22:30;98038.97;;;-3.20;100.00
72423;BME280;60413;55.658;37.498;2023-01-05T00:25:16;98074.34;;;-2.99;100.00
72423;BME280;60413;55.658;37.498;2023-01-05T00:27:45;98075.97;;;-2.98;100.00
72423;BME280;60413;55.658;37.498;2023-01-05T00:30:14;98066.09;;;-2.94;100.00
72423;BME280;60413;55.658;37.498;2023-01-05T00:32:41;98065.13;;;-2.93;100.00
72423;BME280;60413;55.658;37.498;2023-01-05T00:35:09;98052.16;;;-2.85;100.00
72423;BME280;60413;55.658;37.498;2023-01-05T00:37:35;98041.16;;;-2.94;100.00
72423;BME280;60413;55.658;37.498;2023-01-05T00:40:04;98051.34;;;-2.86;100.00
72423;BME280;60413;55.658;37.498;2023-01-05T00:42:30;98049.41;;;-2.99;100.00
72423;BME280;60413;55.658;37.498;2023-01-05T00:44:56;98050.63;;;-2.94;100.00
72423;BME280;60413;55.658;37.498;2023-01-05T00:47:22;98061.84;;;-2.87;100.00
72423;BME280;60413;55.658;37.498;2023-01-05T00:49:48;98041.84;;;-3.00;100.00
72423;BME280;60413;55.658;37.498;2023-01-05T00:52:13;98033.66;;;-3.19;100.00
72423;BME280;60413;55.658;37.498;2023-01-05T00:54:39;98023.81;;;-3.53;100.00
72423;BME280;60413;55.658;37.498;2023-01-05T00:57:05;98046.06;;;-3.37;100.00
72423;BME280;60413;55.658;37.498;2023-01-05T00:59:33;98033.72;;;-3.42;100.00
72423;BME280;60413;55.658;37.498;2023-01-05T01:01:59;98030.06;;;-3.47;100.00
72423;BME280;60413;55.658;37.498;2023-01-05T01:04:24;98016.28;;;-3.55;100.00
72423;BME280;60413;55.658;37.498;2023-01-05T01:06:50;98044.13;;;-3.35;100.00
72423;BME280;60413;55.658;37.498;2023-01-05T01:09:17;98048.81;;;-3.39;100.00
72423;BME280;60413;55.658;37.498;2023-01-05T01:11:43;98036.47;;;-3.43;100.00
72423;BME280;60413;55.658;37.498;2023-01-05T01:14:11;98021.69;;;-3.49;100.00
72423;BME280;60413;55.658;37.498;2023-01-05T01:16:39;98037.19;;;-3.35;100.00
72423;BME280;60413;55.658;37.498;2023-01-05T01:19:06;98029.09;;;-3.31;100.00
72423;BME280;60413;55.658;37.498;2023-01-05T01:21:32;98023.69;;;-3.37;100.00
72423;BME280;60413;55.658;37.498;2023-01-05T01:23:58;98038.63;;;-3.32;100.00
72423;BME280;60413;55.658;37.498;2023-01-05T01:26:24;98025.75;;;-3.32;100.00
72423;BME280;60413;55.658;37.498;2023-01-05T01:28:50;98012.66;;;-3.45;100.00
72423;BME280;60413;55.658;37.498;2023-01-05T01:31:16;98018.88;;;-3.40;100.00
72423;BME280;60413;55.658;37.498;2023-01-05T01:33:42;98010.34;;;-3.40;100.00
72423;BME280;60413;55.658;37.498;2023-01-05T01:36:09;98022.09;;;-3.23;100.00
72423;BME280;60413;55.658;37.498;2023-01-05T01:38:35;98031.59;;;-3.23;100.00
72423;BME280;60413;55.658;37.498;2023-01-05T01:41:02;98024.59;;;-3.14;100.00
72423;BME280;60413;55.658;37.498;2023-01-05T01:43:57;98030.19;;;-3.11;100.00
72423;BME280;60413;55.658;37.498;2023-01-05T01:46:26;98028.16;;;-3.15;100.00
72423;BME280;60413;55.658;37.498;2023-01-05T01:48:59;98027.97;;;-3.29;100.00
72423;BME280;60413;55.658;37.498;2023-01-05T01:51:32;98022.44;;;-3.26;100.00
72423;BME280;60413;55.658;37.498;2023-01-05T01:54:01;98036.31;;;-3.27;100.00
72423;BME280;60413;55.658;37.498;2023-01-05T01:56:53;98024.41;;;-3.28;100.00
72423;BME280;60413;55.658;37.498;2023-01-05T01:59:17;98029.38;;;-3.26;100.00
72423;BME280;60413;55.658;37.498;2023-01-05T02:01:43;97998.78;;;-3.44;100.00
72423;BME280;60413;55.658;37.498;2023-01-05T02:04:09;98016.41;;;-3.33;100.00
72423;BME280;60413;55.658;37.498;2023-01-05T02:06:36;98006.34;;;-3.28;100.00
72423;BME280;60413;55.658;37.498;2023-01-05T02:09:03;98018.94;;;-3.48;100.00
72423;BME280;60413;55.658;37.498;2023-01-05T02:17:53;97977.47;;;-3.91;100.00
72423;BME280;60413;55.658;37.498;2023-01-05T02:20:19;97993.03;;;-3.84;100.00
72423;BME280;60413;55.658;37.498;2023-01-05T02:31:50;97987.97;;;-3.78;100.00
72423;BME280;60413;55.658;37.498;2023-01-05T02:34:20;97998.47;;;-3.64;100.00
72423;BME280;60413;55.658;37.498;2023-01-05T02:37:14;98006.84;;;-3.62;100.00
72423;BME280;60413;55.658;37.498;2023-01-05T02:40:02;97989.25;;;-3.74;100.00
72423;BME280;60413;55.658;37.498;2023-01-05T02:42:33;97946.53;;;-4.06;100.00
72423;BME280;60413;55.658;37.498;2023-01-05T02:45:03;97992.00;;;-3.75;100.00
72423;BME280;60413;55.658;37.498;2023-01-05T02:47:43;97991.72;;;-3.80;100.00
72423;BME280;60413;55.658;37.498;2023-01-05T02:58:43;97995.81;;;-3.71;100.00
72423;BME280;60413;55.658;37.498;2023-01-05T03:03:51;97974.22;;;-3.85;100.00
72423;BME280;60413;55.658;37.498;2023-01-05T03:06:46;97976.78;;;-3.85;100.00
72423;BME280;60413;55.658;37.498;2023-01-05T03:09:17;97976.84;;;-3.93;100.00
72423;BME280;60413;55.658;37.498;2023-01-05T03:12:10;97953.69;;;-4.16;100.00
72423;BME280;60413;55.658;37.498;2023-01-05T03:18:13;97978.81;;;-4.18;100.00
72423;BME280;60413;55.658;37.498;2023-01-05T03:20:33;97978.00;;;-4.19;100.00
72423;BME280;60413;55.658;37.498;2023-01-05T03:23:02;97951.13;;;-4.39;100.00
72423;BME280;60413;55.658;37.498;2023-01-05T03:25:49;97938.03;;;-4.53;100.00
72423;BME280;60413;55.658;37.498;2023-01-05T03:28:42;97945.19;;;-4.40;100.00
72423;BME280;60413;55.658;37.498;2023-01-05T03:31:35;97961.03;;;-4.28;100.00
72423;BME280;60413;55.658;37.498;2023-01-05T03:34:26;97956.09;;;-4.38;100.00
72423;BME280;60413;55.658;37.498;2023-01-05T03:37:20;97937.84;;;-4.51;100.00
72423;BME280;60413;55.658;37.498;2023-01-05T03:39:47;97950.09;;;-4.53;100.00
72423;BME280;60413;55.658;37.498;2023-01-05T03:42:14;97951.25;;;-4.56;100.00
72423;BME280;60413;55.658;37.498;2023-01-05T03:44:43;97946.50;;;-4.67;100.00
72423;BME280;60413;55.658;37.498;2023-01-05T03:47:13;97939.16;;;-4.78;100.00
72423;BME280;60413;55.658;37.498;2023-01-05T03:49:40;97965.41;;;-4.60;100.00
72423;BME280;60413;55.658;37.498;2023-01-05T03:52:07;97941.63;;;-4.62;100.00
72423;BME280;60413;55.658;37.498;2023-01-05T03:54:33;97942.59;;;-4.63;100.00
72423;BME280;60413;55.658;37.498;2023-01-05T03:56:59;97937.91;;;-4.59;100.00
72423;BME280;60413;55.658;37.498;2023-01-05T03:59:26;97925.25;;;-4.61;100.00
72423;BME280;60413;55.658;37.498;2023-01-05T04:01:52;97925.41;;;-4.62;100.00
72423;BME280;60413;55.658;37.498;2023-01-05T04:04:18;97881.75;;;-4.94;100.00
72423;BME280;60413;55.658;37.498;2023-01-05T04:06:44;97943.53;;;-4.56;100.00
72423;BME280;60413;55.658;37.498;2023-01-05T04:09:12;97907.19;;;-4.76;100.00
72423;BME280;60413;55.658;37.498;2023-01-05T04:11:40;97944.50;;;-4.57;100.00
72423;BME280;60413;55.658;37.498;2023-01-05T04:14:07;97942.00;;;-4.73;100.00
72423;BME280;60413;55.658;37.498;2023-01-05T04:16:34;97952.88;;;-4.63;100.00
72423;BME280;60413;55.658;37.498;2023-01-05T04:19:06;97907.06;;;-4.82;100.00
72423;BME280;60413;55.658;37.498;2023-01-05T04:21:32;97949.19;;;-4.60;100.00
72423;BME280;60413;55.658;37.498;2023-01-05T04:23:59;97935.00;;;-4.56;100.00
72423;BME280;60413;55.658;37.498;2023-01-05T04:26:24;97909.09;;;-4.78;100.00
72423;BME280;60413;55.658;37.498;2023-01-05T04:28:50;97912.91;;;-4.66;100.00
72423;BME280;60413;55.658;37.498;2023-01-05T04:31:19;97914.66;;;-4.66;100.00
72423;BME280;60413;55.658;37.498;2023-01-05T04:33:44;97924.88;;;-4.58;100.00
72423;BME280;60413;55.658;37.498;2023-01-05T04:36:14;97907.41;;;-4.62;100.00
72423;BME280;60413;55.658;37.498;2023-01-05T04:38:40;97929.81;;;-4.48;100.00
72423;BME280;60413;55.658;37.498;2023-01-05T04:41:07;97923.59;;;-4.54;100.00
72423;BME280;60413;55.658;37.498;2023-01-05T04:43:33;97916.72;;;-4.61;100.00
72423;BME280;60413;55.658;37.498;2023-01-05T04:46:00;97905.66;;;-4.62;100.00
72423;BME280;60413;55.658;37.498;2023-01-05T04:48:27;97921.34;;;-4.57;100.00
72423;BME280;60413;55.658;37.498;2023-01-05T04:50:54;97919.41;;;-4.55;100.00
72423;BME280;60413;55.658;37.498;2023-01-05T04:53:26;97886.34;;;-4.81;100.00
72423;BME280;60413;55.658;37.498;2023-01-05T04:55:52;97922.47;;;-4.59;100.00
72423;BME280;60413;55.658;37.498;2023-01-05T04:58:19;97917.34;;;-4.59;100.00
72423;BME280;60413;55.658;37.498;2023-01-05T05:00:47;97909.47;;;-4.58;100.00
72423;BME280;60413;55.658;37.498;2023-01-05T05:03:14;97916.09;;;-4.63;100.00
72423;BME280;60413;55.658;37.498;2023-01-05T05:05:40;97907.75;;;-4.66;100.00
72423;BME280;60413;55.658;37.498;2023-01-05T05:08:08;97911.84;;;-4.56;100.00
72423;BME280;60413;55.658;37.498;2023-01-05T05:10:35;97925.28;;;-4.46;100.00
72423;BME280;60413;55.658;37.498;2023-01-05T05:13:01;97912.91;;;-4.42;100.00
72423;BME280;60413;55.658;37.498;2023-01-05T05:15:28;97900.63;;;-4.55;100.00
72423;BME280;60413;55.658;37.498;2023-01-05T05:17:54;97902.63;;;-4.66;100.00
72423;BME280;60413;55.658;37.498;2023-01-05T05:20:21;97911.41;;;-4.60;100.00
72423;BME280;60413;55.658;37.498;2023-01-05T05:22:48;97910.72;;;-4.54;100.00
72423;BME280;60413;55.658;37.498;2023-01-05T05:25:16;97906.09;;;-4.58;100.00
72423;BME280;60413;55.658;37.498;2023-01-05T05:27:45;97884.34;;;-4.71;100.00
72423;BME280;60413;55.658;37.498;2023-01-05T05:30:11;97911.06;;;-4.57;100.00
72423;BME280;60413;55.658;37.498;2023-01-05T05:32:37;97911.41;;;-4.60;100.00
72423;BME280;60413;55.658;37.498;2023-01-05T05:35:03;97893.63;;;-4.70;100.00
72423;BME280;60413;55.658;37.498;2023-01-05T05:37:29;97898.59;;;-4.68;100.00
72423;BME280;60413;55.658;37.498;2023-01-05T05:39:55;97896.19;;;-4.70;100.00
72423;BME280;60413;55.658;37.498;2023-01-05T05:42:21;97879.28;;;-4.87;100.00
72423;BME280;60413;55.658;37.498;2023-01-05T05:44:46;97887.41;;;-4.75;100.00
72423;BME280;60413;55.658;37.498;2023-01-05T05:47:12;97872.50;;;-4.80;100.00
72423;BME280;60413;55.658;37.498;2023-01-05T05:49:38;97898.09;;;-4.63;100.00
72423;BME280;60413;55.658;37.498;2023-01-05T05:52:03;97895.88;;;-4.67;100.00
72423;BME280;60413;55.658;37.498;2023-01-05T05:54:29;97882.16;;;-4.82;100.00
72423;BME280;60413;55.658;37.498;2023-01-05T05:56:55;97888.66;;;-4.71;100.00
72423;BME280;60413;55.658;37.498;2023-01-05T05:59:20;97887.25;;;-4.74;100.00
72423;BME280;60413;55.658;37.498;2023-01-05T06:01:46;97875.56;;;-4.85;100.00
72423;BME280;60413;55.658;37.498;2023-01-05T06:04:12;97894.75;;;-4.64;100.00
72423;BME280;60413;55.658;37.498;2023-01-05T06:06:38;97903.06;;;-4.62;100.00
72423;BME280;60413;55.658;37.498;2023-01-05T06:09:04;97893.25;;;-4.58;100.00
72423;BME280;60413;55.658;37.498;2023-01-05T06:11:30;97898.59;;;-4.68;100.00
72423;BME280;60413;55.658;37.498;2023-01-05T06:13:56;97871.25;;;-4.84;100.00
72423;BME280;60413;55.658;37.498;2023-01-05T06:16:22;97887.06;;;-4.72;100.00
72423;BME280;60413;55.658;37.498;2023-01-05T06:18:47;97863.28;;;-4.97;100.00
72423;BME280;60413;55.658;37.498;2023-01-05T06:21:13;97873.25;;;-4.94;100.00
72423;BME280;60413;55.658;37.498;2023-01-05T06:23:39;97866.66;;;-4.97;100.00
72423;BME280;60413;55.658;37.498;2023-01-05T06:26:05;97890.03;;;-4.84;100.00
72423;BME280;60413;55.658;37.498;2023-01-05T06:28:30;97879.13;;;-4.86;100.00
72423;BME280;60413;55.658;37.498;2023-01-05T06:30:56;97859.44;;;-5.02;100.00
72423;BME280;60413;55.658;37.498;2023-01-05T06:33:22;97885.81;;;-4.76;100.00
72423;BME280;60413;55.658;37.498;2023-01-05T06:35:47;97881.66;;;-4.77;100.00
72423;BME280;60413;55.658;37.498;2023-01-05T06:38:13;97883.56;;;-4.79;100.00
72423;BME280;60413;55.658;37.498;2023-01-05T06:40:41;97883.06;;;-4.75;100.00
72423;BME280;60413;55.658;37.498;2023-01-05T06:43:10;97874.91;;;-4.78;100.00
72423;BME280;60413;55.658;37.498;2023-01-05T06:45:36;97884.97;;;-4.69;100.00
72423;BME280;60413;55.658;37.498;2023-01-05T06:48:02;97882.34;;;-4.60;100.00
72423;BME280;60413;55.658;37.498;2023-01-05T06:50:29;97877.97;;;-4.60;100.00
72423;BME280;60413;55.658;37.498;2023-01-05T06:52:57;97875.41;;;-4.60;100.00
72423;BME280;60413;55.658;37.498;2023-01-05T06:55:24;97878.66;;;-4.43;100.00
72423;BME280;60413;55.658;37.498;2023-01-05T06:57:50;97873.84;;;-4.46;100.00
72423;BME280;60413;55.658;37.498;2023-01-05T07:00:16;97865.69;;;-4.50;100.00
72423;BME280;60413;55.658;37.498;2023-01-05T07:02:42;97865.56;;;-4.56;100.00
72423;BME280;60413;55.658;37.498;2023-01-05T07:05:08;97882.28;;;-4.52;100.00
72423;BME280;60413;55.658;37.498;2023-01-05T07:07:35;97871.38;;;-4.54;100.00
72423;BME280;60413;55.658;37.498;2023-01-05T07:10:01;97874.41;;;-4.51;100.00
72423;BME280;60413;55.658;37.498;2023-01-05T07:12:27;97871.00;;;-4.51;100.00
72423;BME280;60413;55.658;37.498;2023-01-05T07:14:53;97879.00;;;-4.46;100.00
72423;BME280;60413;55.658;37.498;2023-01-05T07:17:19;97875.16;;;-4.27;100.00
72423;BME280;60413;55.658;37.498;2023-01-05T07:19:44;97848.44;;;-4.41;100.00
72423;BME280;60413;55.658;37.498;2023-01-05T07:22:10;97864.16;;;-4.36;100.00
72423;BME280;60413;55.658;37.498;2023-01-05T07:24:36;97842.03;;;-4.45;100.00
72423;BME280;60413;55.658;37.498;2023-01-05T07:27:02;97826.28;;;-4.65;100.00
72423;BME280;60413;55.658;37.498;2023-01-05T07:29:32;97864.78;;;-4.34;100.00
72423;BME280;60413;55.658;37.498;2023-01-05T07:31:58;97831.13;;;-4.70;100.00
72423;BME280;60413;55.658;37.498;2023-01-05T07:34:24;97822.97;;;-4.74;100.00
72423;BME280;60413;55.658;37.498;2023-01-05T07:36:51;97886.66;;;-4.38;100.00
72423;BME280;60413;55.658;37.498;2023-01-05T07:39:17;97809.50;;;-4.76;100.00
72423;BME280;60413;55.658;37.498;2023-01-05T07:41:44;97817.06;;;-4.74;100.00
72423;BME280;60413;55.658;37.498;2023-01-05T07:44:10;97862.66;;;-4.53;100.00
72423;BME280;60413;55.658;37.498;2023-01-05T07:46:36;97830.28;;;-4.62;100.00
72423;BME280;60413;55.658;37.498;2023-01-05T07:49:02;97819.31;;;-4.79;100.00
72423;BME280;60413;55.658;37.498;2023-01-05T07:51:29;97819.78;;;-4.76;100.00
72423;BME280;60413;55.658;37.498;2023-01-05T07:53:55;97825.38;;;-4.72;100.00
72423;BME280;60413;55.658;37.498;2023-01-05T07:56:26;97774.25;;;-4.90;100.00
72423;BME280;60413;55.658;37.498;2023-01-05T07:58:51;97791.69;;;-4.77;100.00
72423;BME280;60413;55.658;37.498;2023-01-05T08:01:18;97817.88;;;-4.59;100.00
72423;BME280;60413;55.658;37.498;2023-01-05T08:03:44;97850.19;;;-4.41;100.00
72423;BME280;60413;55.658;37.498;2023-01-05T08:06:16;97814.38;;;-4.66;100.00
72423;BME280;60413;55.658;37.498;2023-01-05T08:08:50;97822.16;;;-4.51;100.00
72423;BME280;60413;55.658;37.498;2023-01-05T08:11:17;97847.13;;;-4.37;100.00
72423;BME280;60413;55.658;37.498;2023-01-05T08:14:11;97868.78;;;-4.16;100.00
72423;BME280;60413;55.658;37.498;2023-01-05T08:16:37;97866.03;;;-4.15;100.00
72423;BME280;60413;55.658;37.498;2023-01-05T08:19:03;97850.47;;;-4.36;100.00
72423;BME280;60413;55.658;37.498;2023-01-05T08:21:29;97808.22;;;-4.57;100.00
72423;BME280;60413;55.658;37.498;2023-01-05T08:23:55;97777.50;;;-4.73;100.00
72423;BME280;60413;55.658;37.498;2023-01-05T08:26:24;97812.78;;;-4.44;100.00
72423;BME280;60413;55.658;37.498;2023-01-05T08:28:51;97786.69;;;-4.56;100.00
72423;BME280;60413;55.658;37.498;2023-01-05T08:31:28;97820.25;;;-4.34;100.00
72423;BME280;60413;55.658;37.498;2023-01-05T08:33:56;97847.16;;;-4.22;100.00
72423;BME280;60413;55.658;37.498;2023-01-05T08:36:25;97809.56;;;-4.46;100.00
72423;BME280;60413;55.658;37.498;2023-01-05T08:38:52;97795.81;;;-4.53;100.00
72423;BME280;60413;55.658;37.498;2023-01-05T08:41:20;97831.34;;;-4.34;100.00
72423;BME280;60413;55.658;37.498;2023-01-05T08:43:55;97764.25;;;-4.85;100.00
72423;BME280;60413;55.658;37.498;2023-01-05T08:46:26;97825.53;;;-4.51;100.00
72423;BME280;60413;55.658;37.498;2023-01-05T08:48:59;97801.13;;;-4.55;100.00
72423;BME280;60413;55.658;37.498;2023-01-05T08:51:36;97831.69;;;-4.37;100.00
72423;BME280;60413;55.658;37.498;2023-01-05T08:54:02;97751.72;;;-5.03;100.00
72423;BME280;60413;55.658;37.498;2023-01-05T08:56:28;97801.16;;;-4.78;100.00
72423;BME280;60413;55.658;37.498;2023-01-05T08:59:00;97840.75;;;-4.64;100.00
72423;BME280;60413;55.658;37.498;2023-01-05T09:01:28;97834.78;;;-4.65;100.00
72423;BME280;60413;55.658;37.498;2023-01-05T09:03:58;97804.38;;;-4.76;100.00
72423;BME280;60413;55.658;37.498;2023-01-05T09:06:24;97812.28;;;-4.62;100.00
72423;BME280;60413;55.658;37.498;2023-01-05T09:09:01;97783.88;;;-4.84;100.00
72423;BME280;60413;55.658;37.498;2023-01-05T09:11:30;97744.59;;;-5.16;100.00
72423;BME280;60413;55.658;37.498;2023-01-05T09:13:57;97750.13;;;-5.04;100.00
72423;BME280;60413;55.658;37.498;2023-01-05T09:16:39;97813.25;;;-4.63;100.00
72423;BME280;60413;55.658;37.498;2023-01-05T09:19:20;97723.47;;;-5.26;100.00
72423;BME280;60413;55.658;37.498;2023-01-05T09:21:49;97743.88;;;-5.10;100.00
72423;BME280;60413;55.658;37.498;2023-01-05T09:24:19;97727.50;;;-5.09;100.00
72423;BME280;60413;55.658;37.498;2023-01-05T09:26:56;97746.69;;;-4.96;100.00
72423;BME280;60413;55.658;37.498;2023-01-05T09:29:28;97763.81;;;-4.89;100.00
72423;BME280;60413;55.658;37.498;2023-01-05T09:32:02;97786.47;;;-4.69;100.00
72423;BME280;60413;55.658;37.498;2023-01-05T09:35:11;97728.41;;;-5.02;100.00
72423;BME280;60413;55.658;37.498;2023-01-05T09:37:46;97720.59;;;-5.08;100.00
72423;BME280;60413;55.658;37.498;2023-01-05T09:43:24;97737.56;;;-5.22;100.00
72423;BME280;60413;55.658;37.498;2023-01-05T09:46:03;97736.78;;;-5.23;100.00
72423;BME280;60413;55.658;37.498;2023-01-05T09:48:39;97691.78;;;-5.42;100.00
72423;BME280;60413;55.658;37.498;2023-01-05T09:51:14;97783.69;;;-5.06;100.00
72423;BME280;60413;55.658;37.498;2023-01-05T09:53:46;97768.63;;;-5.09;100.00
72423;BME280;60413;55.658;37.498;2023-01-05T09:56:27;97714.59;;;-5.47;100.00
72423;BME280;60413;55.658;37.498;2023-01-05T09:59:13;97759.13;;;-5.31;100.00
72423;BME280;60413;55.658;37.498;2023-01-05T10:01:47;97690.38;;;-5.99;100.00
72423;BME280;60413;55.658;37.498;2023-01-05T10:04:21;97772.00;;;-5.63;100.00
72423;BME280;60413;55.658;37.498;2023-01-05T10:07:14;97731.50;;;-5.84;100.00
72423;BME280;60413;55.658;37.498;2023-01-05T10:09:45;97683.06;;;-6.10;100.00
72423;BME280;60413;55.658;37.498;2023-01-05T10:12:25;97697.69;;;-5.87;100.00
72423;BME280;60413;55.658;37.498;2023-01-05T10:15:22;97755.44;;;-5.60;100.00
72423;BME280;60413;55.658;37.498;2023-01-05T10:17:51;97732.78;;;-5.80;100.00
72423;BME280;60413;55.658;37.498;2023-01-05T10:23:29;97718.03;;;-5.86;100.00
72423;BME280;60413;55.658;37.498;2023-01-05T10:29:15;97700.53;;;-6.13;100.00
72423;BME280;60413;55.658;37.498;2023-01-05T10:45:40;97768.31;;;-6.00;100.00
72423;BME280;60413;55.658;37.498;2023-01-05T10:48:24;97688.66;;;-6.54;100.00
72423;BME280;60413;55.658;37.498;2023-01-05T10:50:55;97699.38;;;-6.42;100.00
72423;BME280;60413;55.658;37.498;2023-01-05T10:53:24;97751.06;;;-6.22;100.00
72423;BME280;60413;55.658;37.498;2023-01-05T11:03:53;97732.88;;;-6.60;100.00
72423;BME280;60413;55.658;37.498;2023-01-05T11:06:23;97776.28;;;-6.42;100.00
72423;BME280;60413;55.658;37.498;2023-01-05T11:08:50;97707.47;;;-6.86;100.00
72423;BME280;60413;55.658;37.498;2023-01-05T11:11:24;97754.53;;;-6.63;100.00
72423;BME280;60413;55.658;37.498;2023-01-05T11:13:55;97769.53;;;-6.52;100.00
72423;BME280;60413;55.658;37.498;2023-01-05T11:16:29;97751.13;;;-6.63;100.00
72423;BME280;60413;55.658;37.498;2023-01-05T11:24:08;97704.88;;;-6.78;100.00
72423;BME280;60413;55.658;37.498;2023-01-05T11:26:57;97736.13;;;-6.75;100.00
72423;BME280;60413;55.658;37.498;2023-01-05T11:29:24;97688.09;;;-7.05;100.00
72423;BME280;60413;55.658;37.498;2023-01-05T11:32:00;97716.09;;;-6.71;100.00
72423;BME280;60413;55.658;37.498;2023-01-05T11:34:42;97741.00;;;-6.40;100.00
72423;BME280;60413;55.658;37.498;2023-01-05T11:44:43;97700.91;;;-6.89;100.00
72423;BME280;60413;55.658;37.498;2023-01-05T11:47:19;97734.66;;;-6.77;100.00
72423;BME280;60413;55.658;37.498;2023-01-05T11:49:46;97717.06;;;-6.89;100.00
72423;BME280;60413;55.658;37.498;2023-01-05T11:52:31;97716.59;;;-7.00;100.00
72423;BME280;60413;55.658;37.498;2023-01-05T11:55:37;97717.09;;;-7.13;100.00
72423;BME280;60413;55.658;37.498;2023-01-05T11:58:20;97689.88;;;-7.31;100.00
72423;BME280;60413;55.658;37.498;2023-01-05T12:00:56;97761.75;;;-6.83;100.00
72423;BME280;60413;55.658;37.498;2023-01-05T12:06:49;97749.25;;;-7.02;100.00
72423;BME280;60413;55.658;37.498;2023-01-05T12:20:50;97730.81;;;-7.22;100.00
72423;BME280;60413;55.658;37.498;2023-01-05T12:37:59;97760.25;;;-7.35;100.00
72423;BME280;60413;55.658;37.498;2023-01-05T12:48:20;97752.38;;;-7.58;100.00
72423;BME280;60413;55.658;37.498;2023-01-05T12:53:49;97776.50;;;-7.60;100.00
72423;BME280;60413;55.658;37.498;2023-01-05T12:56:24;97778.56;;;-7.64;100.00
72423;BME280;60413;55.658;37.498;2023-01-05T12:59:17;97776.16;;;-7.66;100.00
72423;BME280;60413;55.658;37.498;2023-01-05T13:04:51;97777.22;;;-7.85;100.00
72423;BME280;60413;55.658;37.498;2023-01-05T13:07:24;97767.75;;;-7.92;100.00
72423;BME280;60413;55.658;37.498;2023-01-05T13:10:03;97743.09;;;-8.10;100.00
72423;BME280;60413;55.658;37.498;2023-01-05T13:12:31;97730.53;;;-8.29;100.00
72423;BME280;60413;55.658;37.498;2023-01-05T13:15:12;97778.78;;;-8.00;100.00
72423;BME280;60413;55.658;37.498;2023-01-05T13:17:50;97704.28;;;-8.48;100.00
72423;BME280;60413;55.658;37.498;2023-01-05T13:20:26;97741.69;;;-8.30;100.00
72423;BME280;60413;55.658;37.498;2023-01-05T13:23:10;97713.72;;;-8.40;100.00
72423;BME280;60413;55.658;37.498;2023-01-05T13:25:47;97744.28;;;-8.22;100.00
72423;BME280;60413;55.658;37.498;2023-01-05T13:28:19;97724.09;;;-8.42;100.00
72423;BME280;60413;55.658;37.498;2023-01-05T13:44:59;97718.50;;;-8.71;100.00
72423;BME280;60413;55.658;37.498;2023-01-05T13:53:22;97763.56;;;-8.62;100.00
72423;BME280;60413;55.658;37.498;2023-01-05T13:55:52;97792.22;;;-8.50;100.00
72423;BME280;60413;55.658;37.498;2023-01-05T13:58:46;97794.50;;;-8.47;100.00
72423;BME280;60413;55.658;37.498;2023-01-05T14:03:59;97792.34;;;-8.60;100.00
72423;BME280;60413;55.658;37.498;2023-01-05T14:06:32;97796.50;;;-8.59;100.00
72423;BME280;60413;55.658;37.498;2023-01-05T14:09:02;97797.28;;;-8.59;100.00
72423;BME280;60413;55.658;37.498;2023-01-05T14:11:29;97789.06;;;-8.70;100.00
72423;BME280;60413;55.658;37.498;2023-01-05T14:13:58;97803.09;;;-8.74;100.00
72423;BME280;60413;55.658;37.498;2023-01-05T14:19:22;97813.38;;;-8.84;100.00
72423;BME280;60413;55.658;37.498;2023-01-05T14:24:41;97808.34;;;-8.94;100.00
72423;BME280;60413;55.658;37.498;2023-01-05T14:27:22;97811.41;;;-8.90;100.00
72423;BME280;60413;55.658;37.498;2023-01-05T14:32:31;97821.09;;;-8.94;100.00
72423;BME280;60413;55.658;37.498;2023-01-05T14:35:04;97820.09;;;-9.01;100.00
72423;BME280;60413;55.658;37.498;2023-01-05T14:37:38;97798.72;;;-9.18;100.00
72423;BME280;60413;55.658;37.498;2023-01-05T14:42:48;97801.84;;;-9.24;100.00
72423;BME280;60413;55.658;37.498;2023-01-05T14:45:41;97789.34;;;-9.45;100.00
72423;BME280;60413;55.658;37.498;2023-01-05T14:48:35;97807.75;;;-9.42;100.00
72423;BME280;60413;55.658;37.498;2023-01-05T14:51:21;97767.88;;;-9.71;100.00
72423;BME280;60413;55.658;37.498;2023-01-05T14:53:55;97779.13;;;-9.63;100.00
72423;BME280;60413;55.658;37.498;2023-01-05T14:56:29;97828.16;;;-9.42;100.00
72423;BME280;60413;55.658;37.498;2023-01-05T14:59:18;97760.59;;;-9.83;100.00
72423;BME280;60413;55.658;37.498;2023-01-05T15:01:58;97782.66;;;-9.74;100.00
72423;BME280;60413;55.658;37.498;2023-01-05T15:04:56;97755.03;;;-9.97;100.00
72423;BME280;60413;55.658;37.498;2023-01-05T15:07:38;97802.50;;;-9.68;100.00
72423;BME280;60413;55.658;37.498;2023-01-05T15:10:34;97798.34;;;-9.69;100.00
72423;BME280;60413;55.658;37.498;2023-01-05T15:15:38;97803.50;;;-9.51;100.00
72423;BME280;60413;55.658;37.498;2023-01-05T15:29:53;97827.78;;;-9.29;100.00
72423;BME280;60413;55.658;37.498;2023-01-05T15:32:27;97768.38;;;-9.85;100.00
72423;BME280;60413;55.658;37.498;2023-01-05T15:35:15;97824.03;;;-9.53;100.00
72423;BME280;60413;55.658;37.498;2023-01-05T15:37:44;97791.28;;;-9.75;100.00
72423;BME280;60413;55.658;37.498;2023-01-05T15:42:50;97794.44;;;-9.63;100.00
72423;BME280;60413;55.658;37.498;2023-01-05T15:47:53;97839.53;;;-9.36;100.00
72423;BME280;60413;55.658;37.498;2023-01-05T15:50:23;97831.72;;;-9.35;100.00
72423;BME280;60413;55.658;37.498;2023-01-05T15:52:55;97826.59;;;-9.53;100.00